Time;durP1;ratioP1;P1;durP2;ratioP2;P2;SDS_P1;SDS_P2;PMS_P1;PMS_P2;Temp;Humidity;BMP_temperature;BMP_pressure;BME280_temperature;BME280_humidity;BME280_pressure;Samples;Min_cycle;Max_cycle;Signal;HPM_P1;HPM_P2
2022/08/08 00:00:31;;;;;;;12.23;5.75;;;16.60;99.90;;;;;;4821362;29;20454;-50
2022/08/08 00:03:09;;;;;;;10.65;5.68;;;16.50;99.90;;;;;;4821543;29;20472;-52
2022/08/08 00:05:48;;;;;;;7.70;6.45;;;16.40;99.90;;;;;;4821528;29;20053;-49
2022/08/08 00:08:38;;;;;;;9.38;6.40;;;16.40;99.90;;;;;;4821609;29;20026;-51
2022/08/08 00:11:38;;;;;;;18.92;7.43;;;16.50;99.90;;;;;;4821578;29;20364;-52
2022/08/08 00:14:27;;;;;;;11.02;6.60;;;16.40;99.90;;;;;;4818419;29;20054;-51
2022/08/08 00:17:27;;;;;;;6.95;6.22;;;16.40;99.90;;;;;;4819566;29;20053;-52
2022/08/08 00:20:06;;;;;;;8.52;6.90;;;16.30;99.90;;;;;;4819031;29;20045;-51
2022/08/08 00:22:38;;;;;;;8.50;7.32;;;16.30;99.90;;;;;;4821256;29;20053;-51
2022/08/08 00:25:37;;;;;;;12.07;7.15;;;16.30;99.90;;;;;;4821318;29;20077;-50
2022/08/08 00:28:06;;;;;;;10.80;7.53;;;16.30;99.90;;;;;;4821248;29;20372;-53
2022/08/08 00:30:36;;;;;;;8.60;7.72;;;16.30;99.90;;;;;;4821295;29;20058;-50
2022/08/08 00:33:14;;;;;;;10.85;8.20;;;16.20;99.90;;;;;;4821295;29;20060;-51
2022/08/08 00:36:01;;;;;;;13.23;8.45;;;16.30;99.90;;;;;;4821402;29;20478;-50
2022/08/08 00:38:41;;;;;;;20.90;8.15;;;16.20;99.90;;;;;;4821441;29;20125;-50
2022/08/08 00:41:44;;;;;;;14.55;9.35;;;16.20;99.90;;;;;;4819936;29;20042;-49
2022/08/08 00:44:15;;;;;;;12.50;8.02;;;16.20;99.90;;;;;;4821178;29;20215;-50
2022/08/08 00:46:56;;;;;;;18.58;8.50;;;16.20;99.90;;;;;;4820980;29;20030;-50
2022/08/08 00:49:50;;;;;;;10.82;9.82;;;16.20;99.90;;;;;;4821295;29;20045;-51
2022/08/08 00:52:25;;;;;;;12.93;9.20;;;16.20;99.90;;;;;;4823853;29;20034;-50
2022/08/08 00:55:07;;;;;;;12.93;9.45;;;16.30;99.90;;;;;;4825053;29;20066;-53
2022/08/08 00:58:10;;;;;;;13.93;10.43;;;16.20;99.90;;;;;;4824710;29;20394;-51
2022/08/08 01:00:57;;;;;;;12.02;9.45;;;16.20;99.90;;;;;;4824468;29;20054;-50
2022/08/08 01:04:18;;;;;;;17.08;9.75;;;16.20;99.90;;;;;;4824066;29;20079;-50
2022/08/08 01:07:04;;;;;;;10.75;9.38;;;16.20;99.90;;;;;;4811868;29;20026;-53
2022/08/08 01:09:58;;;;;;;13.57;10.07;;;16.20;99.90;;;;;;4824390;29;20033;-51
2022/08/08 01:12:44;;;;;;;11.38;10.18;;;16.10;99.90;;;;;;4824536;29;20030;-51
2022/08/08 01:15:39;;;;;;;12.40;10.35;;;16.10;99.90;;;;;;4823998;29;20077;-53
2022/08/08 01:18:23;;;;;;;11.40;9.55;;;16.10;99.90;;;;;;4809888;29;20141;-51
2022/08/08 01:20:55;;;;;;;11.32;10.07;;;16.00;99.90;;;;;;4809531;29;20583;-51
2022/08/08 01:23:23;;;;;;;11.18;10.07;;;16.00;99.90;;;;;;4824438;29;20034;-51
2022/08/08 01:26:08;;;;;;;12.57;10.65;;;16.10;99.90;;;;;;4824014;29;20187;-50
2022/08/08 01:28:58;;;;;;;14.13;11.00;;;16.00;99.90;;;;;;4824426;29;20038;-50
2022/08/08 01:32:06;;;;;;;11.35;10.25;;;16.00;99.90;;;;;;4824084;29;20027;-53
2022/08/08 01:34:50;;;;;;;13.23;11.43;;;15.90;99.90;;;;;;4806097;29;20391;-51
2022/08/08 01:37:53;;;;;;;14.60;10.35;;;15.90;99.90;;;;;;4814772;29;20502;-51
2022/08/08 01:40:40;;;;;;;12.93;11.70;;;15.90;99.90;;;;;;4823945;29;20035;-51
2022/08/08 01:43:32;;;;;;;12.02;10.80;;;16.00;99.90;;;;;;4823722;29;20045;-50
2022/08/08 01:46:35;;;;;;;15.25;12.82;;;16.00;99.90;;;;;;4823379;29;20057;-50
2022/08/08 01:49:37;;;;;;;17.17;11.77;;;16.00;99.90;;;;;;4805663;29;20395;-51
2022/08/08 01:52:26;;;;;;;12.35;11.15;;;16.10;99.90;;;;;;4812714;29;20113;-51
2022/08/08 01:55:00;;;;;;;13.50;11.95;;;16.10;99.90;;;;;;4823549;29;20032;-52
2022/08/08 01:57:32;;;;;;;15.70;11.52;;;16.10;99.90;;;;;;4823501;29;20368;-50
2022/08/08 02:00:21;;;;;;;14.68;12.82;;;16.10;99.90;;;;;;4823738;29;20066;-51
2022/08/08 02:03:05;;;;;;;17.52;12.57;;;16.10;99.90;;;;;;4823175;29;20038;-51
2022/08/08 02:06:07;;;;;;;15.95;12.05;;;16.10;99.90;;;;;;4823405;29;20019;-51
2022/08/08 02:09:00;;;;;;;16.95;11.95;;;16.00;99.90;;;;;;4822583;29;20051;-51
2022/08/08 02:11:44;;;;;;;15.20;12.20;;;16.00;99.90;;;;;;4823526;29;20023;-52
2022/08/08 02:14:39;;;;;;;13.95;12.55;;;16.00;99.90;;;;;;4823153;29;20078;-51
2022/08/08 02:17:29;;;;;;;13.20;11.65;;;15.90;99.90;;;;;;4823295;29;20070;-50
2022/08/08 02:20:20;;;;;;;14.40;11.90;;;15.90;99.90;;;;;;4823238;29;20050;-51
2022/08/08 02:23:09;;;;;;;14.77;11.93;;;15.90;99.90;;;;;;4823271;29;20038;-50
2022/08/08 02:25:48;;;;;;;14.07;12.27;;;15.90;99.90;;;;;;4823182;29;20037;-50
2022/08/08 02:28:40;;;;;;;18.92;12.35;;;15.90;99.90;;;;;;4823094;29;20038;-50
2022/08/08 02:31:31;;;;;;;16.70;11.30;;;15.90;99.90;;;;;;4822845;29;20087;-50
2022/08/08 02:34:17;;;;;;;12.40;11.07;;;15.90;99.90;;;;;;4822994;29;20038;-50
2022/08/08 02:37:05;;;;;;;12.40;11.10;;;15.90;99.90;;;;;;4821503;29;20043;-52
2022/08/08 02:40:07;;;;;;;16.52;11.95;;;15.90;99.90;;;;;;4821646;29;20498;-51
2022/08/08 02:42:33;;;;;;;12.68;11.23;;;15.90;99.90;;;;;;4814706;29;20398;-50
2022/08/08 02:45:17;;;;;;;13.48;11.35;;;15.90;99.90;;;;;;4822593;29;20030;-49
2022/08/08 02:48:20;;;;;;;16.55;12.30;;;15.90;99.90;;;;;;4822701;29;20058;-51
2022/08/08 02:50:52;;;;;;;15.90;12.00;;;15.90;99.90;;;;;;4823019;29;20027;-51
2022/08/08 02:53:23;;;;;;;18.70;11.90;;;15.90;99.90;;;;;;4822514;29;20034;-50
2022/08/08 02:56:08;;;;;;;13.63;12.43;;;15.80;99.90;;;;;;4822427;29;20046;-50
2022/08/08 02:59:07;;;;;;;13.30;11.90;;;15.80;99.90;;;;;;4822663;29;20049;-51
2022/08/08 03:01:51;;;;;;;14.07;12.63;;;15.80;99.90;;;;;;4822753;29;20091;-50
2022/08/08 03:04:32;;;;;;;14.27;12.77;;;15.80;99.90;;;;;;4821132;29;20034;-50
2022/08/08 03:07:22;;;;;;;14.82;12.20;;;15.80;99.90;;;;;;4809036;29;20042;-50
2022/08/08 03:10:25;;;;;;;17.95;14.98;;;15.70;99.90;;;;;;4821269;29;20034;-50
2022/08/08 03:13:28;;;;;;;18.58;15.63;;;15.70;99.90;;;;;;4822162;29;20035;-52
2022/08/08 03:15:53;;;;;;;18.35;14.65;;;15.80;99.90;;;;;;4822392;29;20030;-50
2022/08/08 03:18:45;;;;;;;16.00;14.30;;;15.80;99.90;;;;;;4822213;29;20034;-50
2022/08/08 03:21:11;;;;;;;16.30;14.60;;;15.80;99.90;;;;;;4811883;29;20049;-49
2022/08/08 03:23:36;;;;;;;17.10;14.00;;;15.80;99.90;;;;;;4822382;29;20035;-50
2022/08/08 03:26:02;;;;;;;18.38;15.82;;;15.80;99.90;;;;;;4821938;29;20030;-51
2022/08/08 03:28:52;;;;;;;21.00;15.65;;;15.70;99.90;;;;;;4822392;29;20026;-51
2022/08/08 03:34:09;;;;;;;20.65;16.13;;;15.70;99.90;;;;;;4822119;29;20037;-51
2022/08/08 03:36:42;;;;;;;19.98;16.17;;;15.70;99.90;;;;;;4822037;29;20054;-51
2022/08/08 03:39:10;;;;;;;21.52;18.10;;;15.70;99.90;;;;;;4821871;29;20030;-50
2022/08/08 03:41:36;;;;;;;23.63;18.35;;;15.70;99.90;;;;;;4821759;29;20048;-53
2022/08/08 03:44:02;;;;;;;25.17;19.45;;;15.70;99.90;;;;;;4822074;29;20110;-50
2022/08/08 03:46:48;;;;;;;19.77;17.67;;;15.60;99.90;;;;;;4821896;29;20038;-51
2022/08/08 03:49:19;;;;;;;24.45;18.40;;;15.60;99.90;;;;;;4803794;29;20465;-51
2022/08/08 03:51:50;;;;;;;21.10;18.85;;;15.60;99.90;;;;;;4816615;29;20052;-50
2022/08/08 03:54:16;;;;;;;25.83;21.15;;;15.60;99.90;;;;;;4821707;29;20113;-50
2022/08/08 03:56:42;;;;;;;26.02;21.60;;;15.60;99.90;;;;;;4821877;29;20448;-50
2022/08/08 03:59:08;;;;;;;23.23;20.45;;;15.60;99.90;;;;;;4821732;29;20030;-51
2022/08/08 04:01:36;;;;;;;23.40;20.95;;;15.60;99.90;;;;;;4821573;29;20038;-51
2022/08/08 04:04:01;;;;;;;25.65;21.80;;;15.60;99.90;;;;;;4821588;29;20121;-50
2022/08/08 04:06:28;;;;;;;24.95;22.00;;;15.60;99.90;;;;;;4819679;29;20101;-51
2022/08/08 04:08:53;;;;;;;26.98;22.92;;;15.60;99.90;;;;;;4803364;29;20032;-50
2022/08/08 04:11:19;;;;;;;25.50;21.73;;;15.60;99.90;;;;;;4803589;29;20050;-54
2022/08/08 04:13:45;;;;;;;26.08;23.42;;;15.60;99.90;;;;;;4803491;29;20150;-52
2022/08/08 04:16:11;;;;;;;24.38;20.63;;;15.60;99.90;;;;;;4803419;29;20038;-51
2022/08/08 04:18:36;;;;;;;29.38;21.63;;;15.60;99.90;;;;;;4816262;29;20038;-50
2022/08/08 04:21:02;;;;;;;25.88;20.77;;;15.60;99.90;;;;;;4821517;29;20086;-50
2022/08/08 04:23:28;;;;;;;29.75;20.95;;;15.60;99.90;;;;;;4821405;29;20125;-50
2022/08/08 04:25:55;;;;;;;28.00;20.83;;;15.70;99.90;;;;;;4820678;29;20073;-51
2022/08/08 04:28:21;;;;;;;24.23;19.67;;;15.70;99.90;;;;;;4821617;29;20034;-50
2022/08/08 04:30:47;;;;;;;25.65;18.45;;;15.70;99.90;;;;;;4821652;29;20403;-50
2022/08/08 04:33:12;;;;;;;19.88;17.48;;;15.70;99.90;;;;;;4821286;29;20035;-50
2022/08/08 04:35:39;;;;;;;23.83;17.08;;;15.70;99.90;;;;;;4820164;29;20042;-50
2022/08/08 04:38:05;;;;;;;30.48;18.25;;;15.70;99.90;;;;;;4819845;29;20041;-51
2022/08/08 04:40:31;;;;;;;23.02;18.80;;;15.70;99.90;;;;;;4821036;29;20109;-51
2022/08/08 04:42:57;;;;;;;19.52;16.63;;;15.70;99.90;;;;;;4821070;29;20534;-50
2022/08/08 04:45:24;;;;;;;24.77;17.33;;;15.80;99.90;;;;;;4821549;29;20030;-51
2022/08/08 04:47:50;;;;;;;20.30;17.75;;;15.80;99.90;;;;;;4820970;29;20337;-52
2022/08/08 04:50:16;;;;;;;21.40;17.77;;;15.80;99.90;;;;;;4821292;29;20027;-51
2022/08/08 04:52:41;;;;;;;27.98;16.85;;;15.70;99.90;;;;;;4821255;29;20240;-54
2022/08/08 04:55:07;;;;;;;23.33;18.05;;;15.80;99.90;;;;;;4820742;29;20030;-53
2022/08/08 04:57:33;;;;;;;20.20;17.80;;;15.80;99.90;;;;;;4819779;29;20087;-54
2022/08/08 04:59:58;;;;;;;17.90;16.00;;;15.90;99.90;;;;;;4821198;29;20114;-53
2022/08/08 05:02:24;;;;;;;19.17;16.52;;;15.90;99.90;;;;;;4821172;29;20213;-50
2022/08/08 05:04:50;;;;;;;17.08;15.38;;;15.90;99.90;;;;;;4820963;29;20371;-54
2022/08/08 05:07:16;;;;;;;23.83;17.30;;;15.90;99.90;;;;;;4820525;29;20090;-54
2022/08/08 05:09:42;;;;;;;17.50;14.95;;;15.90;99.90;;;;;;4820857;29;20066;-52
2022/08/08 05:12:07;;;;;;;18.85;14.60;;;15.90;99.90;;;;;;4820693;29;20041;-50
2022/08/08 05:14:33;;;;;;;19.15;14.82;;;15.90;99.90;;;;;;4819502;29;20133;-50
2022/08/08 05:16:59;;;;;;;16.70;14.00;;;16.00;99.90;;;;;;4820814;29;20038;-52
2022/08/08 05:19:25;;;;;;;19.98;14.93;;;16.00;99.90;;;;;;4821093;29;20034;-51
2022/08/08 05:21:54;;;;;;;17.67;14.02;;;16.10;99.90;;;;;;4820759;29;20429;-52
2022/08/08 05:24:20;;;;;;;26.67;14.10;;;16.10;99.90;;;;;;4820782;29;20448;-50
2022/08/08 05:26:45;;;;;;;17.27;11.45;;;16.20;99.90;;;;;;4820932;29;20026;-52
2022/08/08 05:29:12;;;;;;;15.70;12.45;;;16.20;99.90;;;;;;4820674;29;20030;-51
2022/08/08 05:31:37;;;;;;;16.85;11.73;;;16.30;99.90;;;;;;4819601;29;20095;-50
2022/08/08 05:34:33;;;;;;;13.80;10.80;;;16.30;99.90;;;;;;4820526;29;20487;-54
2022/08/08 05:37:00;;;;;;;17.17;11.25;;;16.30;99.90;;;;;;4807234;29;20382;-50
2022/08/08 05:39:27;;;;;;;13.30;10.40;;;16.40;99.90;;;;;;4806120;29;20035;-50
2022/08/08 05:41:53;;;;;;;11.75;9.75;;;16.50;99.90;;;;;;4808154;29;20054;-51
2022/08/08 05:44:23;;;;;;;12.05;10.23;;;16.40;99.90;;;;;;4805998;29;20510;-50
2022/08/08 05:46:52;;;;;;;10.18;8.93;;;16.40;99.90;;;;;;4806019;29;20437;-50
2022/08/08 05:49:18;;;;;;;15.05;9.07;;;16.40;99.90;;;;;;4806026;29;20135;-50
2022/08/08 05:51:46;;;;;;;15.73;8.52;;;16.50;99.90;;;;;;4806041;29;20103;-50
2022/08/08 05:54:12;;;;;;;8.63;7.82;;;16.50;99.90;;;;;;4805948;29;20041;-50
2022/08/08 05:56:40;;;;;;;9.90;7.97;;;16.50;99.90;;;;;;4805915;29;20026;-50
2022/08/08 05:59:10;;;;;;;9.70;7.43;;;16.60;99.90;;;;;;4819137;29;20474;-51
2022/08/08 06:01:41;;;;;;;9.65;7.65;;;16.70;99.90;;;;;;4822613;29;20420;-50
2022/08/08 06:04:10;;;;;;;9.73;7.30;;;16.70;99.90;;;;;;4822291;29;20113;-53
2022/08/08 06:06:39;;;;;;;8.10;7.25;;;16.70;99.90;;;;;;4822516;29;20026;-51
2022/08/08 06:09:07;;;;;;;10.95;8.63;;;16.60;99.90;;;;;;4822538;29;20023;-51
2022/08/08 06:11:34;;;;;;;10.18;7.68;;;16.60;99.90;;;;;;4822669;29;20022;-52
2022/08/08 06:14:05;;;;;;;10.00;6.70;;;16.50;99.90;;;;;;4822214;29;20078;-49
2022/08/08 06:16:35;;;;;;;7.85;6.68;;;16.50;99.90;;;;;;4822205;29;20023;-51
2022/08/08 06:19:02;;;;;;;9.45;7.03;;;16.50;99.90;;;;;;4823422;29;20035;-51
2022/08/08 06:21:28;;;;;;;11.70;7.78;;;16.50;99.90;;;;;;4823596;29;20050;-50
2022/08/08 06:23:54;;;;;;;10.15;7.30;;;16.40;99.90;;;;;;4823165;29;20037;-50
2022/08/08 06:26:24;;;;;;;13.43;7.68;;;16.40;99.90;;;;;;4822893;29;20026;-50
2022/08/08 06:29:00;;;;;;;12.23;6.53;;;16.50;99.90;;;;;;4823382;29;20113;-50
2022/08/08 06:31:33;;;;;;;9.45;6.90;;;16.50;99.90;;;;;;4823175;29;20113;-50
2022/08/08 06:34:08;;;;;;;8.05;6.85;;;16.50;99.90;;;;;;4823130;29;20399;-50
2022/08/08 06:36:42;;;;;;;12.30;8.52;;;16.60;99.90;;;;;;4823149;29;20034;-52
2022/08/08 06:39:10;;;;;;;8.88;7.13;;;16.70;99.90;;;;;;4823077;29;20110;-50
2022/08/08 06:42:01;;;;;;;12.82;6.05;;;16.70;99.90;;;;;;4823083;29;20094;-53
2022/08/08 06:44:27;;;;;;;7.78;6.65;;;16.70;99.90;;;;;;4823043;29;20413;-52
2022/08/08 06:46:54;;;;;;;13.27;7.38;;;16.80;99.90;;;;;;4823394;29;20033;-50
2022/08/08 06:49:20;;;;;;;7.60;6.78;;;16.80;99.90;;;;;;4820806;29;20257;-52
2022/08/08 06:51:46;;;;;;;7.57;6.78;;;16.90;99.90;;;;;;4822974;29;20031;-50
2022/08/08 06:54:12;;;;;;;9.18;6.57;;;17.00;99.90;;;;;;4822900;29;20079;-50
2022/08/08 06:56:38;;;;;;;9.32;6.43;;;17.10;99.90;;;;;;4822929;29;20034;-51
2022/08/08 06:59:05;;;;;;;13.65;6.57;;;17.20;99.90;;;;;;4822709;29;20087;-49
2022/08/08 07:01:46;;;;;;;7.88;6.25;;;17.50;99.90;;;;;;4822522;29;20086;-49
2022/08/08 07:04:22;;;;;;;7.07;5.40;;;17.80;99.90;;;;;;4822670;29;20045;-51
2022/08/08 07:06:59;;;;;;;7.40;5.70;;;18.20;99.90;;;;;;4821545;29;20426;-54
2022/08/08 07:09:41;;;;;;;8.73;6.03;;;18.50;99.90;;;;;;4823122;29;20038;-51
2022/08/08 07:12:08;;;;;;;5.75;5.13;;;18.80;99.90;;;;;;4822260;29;20038;-50
2022/08/08 07:14:51;;;;;;;10.80;5.60;;;19.20;99.90;;;;;;4822415;29;20503;-50
2022/08/08 07:17:23;;;;;;;10.95;5.50;;;19.40;99.90;;;;;;4822551;29;20041;-50
2022/08/08 07:20:06;;;;;;;4.93;4.43;;;19.30;99.90;;;;;;4821294;29;20041;-50
2022/08/08 07:22:46;;;;;;;8.60;5.72;;;19.30;99.90;;;;;;4822513;29;20033;-50
2022/08/08 07:25:14;;;;;;;8.38;5.03;;;19.20;99.90;;;;;;4822424;29;20045;-51
2022/08/08 07:27:45;;;;;;;5.15;4.55;;;19.30;99.90;;;;;;4822365;29;20079;-50
2022/08/08 07:30:12;;;;;;;10.23;4.97;;;19.60;99.90;;;;;;4822382;29;20030;-50
2022/08/08 07:32:39;;;;;;;7.85;5.18;;;19.50;99.90;;;;;;4822432;29;20431;-51
2022/08/08 07:35:06;;;;;;;6.35;5.07;;;19.80;99.90;;;;;;4821940;29;20030;-52
2022/08/08 07:37:33;;;;;;;7.75;4.72;;;19.80;99.90;;;;;;4822315;29;20107;-50
2022/08/08 07:40:00;;;;;;;6.60;3.97;;;19.80;99.90;;;;;;4822141;29;20030;-50
2022/08/08 07:42:28;;;;;;;13.30;5.03;;;20.00;99.90;;;;;;4822155;29;20081;-50
2022/08/08 07:44:54;;;;;;;10.43;4.80;;;19.90;99.90;;;;;;4822028;29;20124;-51
2022/08/08 07:47:20;;;;;;;13.52;4.85;;;19.90;99.90;;;;;;4822117;29;20066;-51
2022/08/08 07:49:45;;;;;;;6.05;5.00;;;19.90;99.90;;;;;;4822028;29;20550;-50
2022/08/08 07:52:13;;;;;;;6.35;4.80;;;19.90;99.90;;;;;;4822027;29;20072;-51
2022/08/08 07:54:53;;;;;;;7.97;4.90;;;19.90;99.90;;;;;;4822094;29;20030;-50
2022/08/08 07:57:39;;;;;;;7.78;4.55;;;19.80;99.90;;;;;;4822371;29;20065;-52
2022/08/08 08:00:08;;;;;;;7.20;5.05;;;20.00;99.90;;;;;;4821437;29;20034;-51
2022/08/08 08:02:42;;;;;;;9.57;4.82;;;20.20;99.90;;;;;;4821982;29;20547;-51
2022/08/08 08:05:22;;;;;;;10.05;4.32;;;20.30;99.90;;;;;;4821867;29;20398;-50
2022/08/08 08:07:52;;;;;;;10.13;4.13;;;20.20;99.90;;;;;;4820739;29;20027;-50
2022/08/08 08:10:18;;;;;;;8.15;4.68;;;20.30;99.90;;;;;;4821803;29;20026;-51
2022/08/08 08:12:56;;;;;;;9.35;4.38;;;20.60;99.90;;;;;;4820376;29;20483;-50
2022/08/08 08:15:25;;;;;;;7.60;4.22;;;20.60;99.90;;;;;;4821711;29;20038;-50
2022/08/08 08:17:57;;;;;;;7.22;4.03;;;20.80;99.90;;;;;;4822008;29;20027;-50
2022/08/08 08:20:28;;;;;;;10.65;4.03;;;20.80;99.90;;;;;;4821835;29;20023;-51
2022/08/08 08:22:54;;;;;;;5.60;3.90;;;20.70;99.90;;;;;;4821462;29;20462;-50
2022/08/08 08:25:20;;;;;;;9.15;3.72;;;20.90;99.90;;;;;;4821591;29;20037;-51
2022/08/08 08:27:46;;;;;;;8.05;4.70;;;21.10;99.90;;;;;;4821534;29;20022;-50
2022/08/08 08:30:12;;;;;;;11.65;4.68;;;21.20;99.90;;;;;;4821336;29;20031;-50
2022/08/08 08:32:37;;;;;;;5.97;3.85;;;21.40;99.90;;;;;;4821624;29;20027;-50
2022/08/08 08:35:04;;;;;;;5.07;3.90;;;21.60;99.90;;;;;;4821434;29;20030;-52
2022/08/08 08:37:29;;;;;;;6.43;4.13;;;21.70;99.90;;;;;;4821416;29;20034;-52
2022/08/08 08:39:55;;;;;;;5.32;3.72;;;21.50;99.90;;;;;;4821432;29;20035;-52
2022/08/08 08:42:24;;;;;;;4.60;3.03;;;21.50;99.90;;;;;;4821597;29;20031;-51
2022/08/08 08:44:51;;;;;;;5.05;4.15;;;21.80;99.90;;;;;;4821242;29;20031;-51
2022/08/08 08:47:19;;;;;;;4.20;3.80;;;21.50;99.90;;;;;;4821585;29;20033;-52
2022/08/08 08:49:44;;;;;;;6.13;3.88;;;21.30;99.90;;;;;;4821496;29;20383;-51
2022/08/08 08:52:15;;;;;;;6.15;3.70;;;21.20;99.90;;;;;;4821272;29;20090;-51
2022/08/08 08:54:42;;;;;;;6.35;4.13;;;21.20;99.90;;;;;;4821336;29;20023;-51
2022/08/08 08:57:09;;;;;;;6.53;3.15;;;21.40;99.90;;;;;;4820931;29;20026;-52
2022/08/08 08:59:40;;;;;;;5.57;4.40;;;21.50;99.90;;;;;;4821311;29;20375;-50
2022/08/08 09:02:23;;;;;;;4.05;3.58;;;21.40;99.90;;;;;;4821139;29;20035;-50
2022/08/08 09:04:54;;;;;;;9.65;3.30;;;21.30;99.90;;;;;;4821112;29;20027;-51
2022/08/08 09:07:23;;;;;;;11.23;4.00;;;21.50;99.90;;;;;;4821127;29;20486;-50
2022/08/08 09:09:53;;;;;;;7.82;3.88;;;21.30;99.90;;;;;;4821145;29;20149;-53
2022/08/08 09:12:22;;;;;;;9.48;4.05;;;21.20;99.90;;;;;;4822363;29;20042;-50
2022/08/08 09:14:57;;;;;;;3.85;3.15;;;21.60;99.90;;;;;;4824135;29;20400;-52
2022/08/08 09:17:25;;;;;;;3.88;3.03;;;21.70;99.90;;;;;;4824593;29;20612;-51
2022/08/08 09:19:56;;;;;;;4.88;2.60;;;21.90;99.10;;;;;;4824365;29;20454;-51
2022/08/08 09:22:23;;;;;;;7.57;2.60;;;22.00;97.50;;;;;;4824475;29;20034;-50
2022/08/08 09:24:49;;;;;;;12.90;3.53;;;22.20;97.80;;;;;;4824262;29;20037;-51
2022/08/08 09:27:17;;;;;;;3.75;2.85;;;22.20;99.10;;;;;;4824488;29;20534;-52
2022/08/08 09:29:49;;;;;;;3.17;2.65;;;22.50;96.90;;;;;;4824002;29;20033;-51
2022/08/08 09:32:20;;;;;;;3.40;2.92;;;22.30;96.60;;;;;;4824088;29;20025;-52
2022/08/08 09:34:49;;;;;;;3.42;2.78;;;22.60;97.30;;;;;;4824156;29;20127;-51
2022/08/08 09:37:18;;;;;;;3.88;1.95;;;22.90;98.80;;;;;;4824020;29;20027;-50
2022/08/08 09:39:58;;;;;;;7.93;2.58;;;22.80;95.00;;;;;;4824090;29;20031;-50
2022/08/08 09:42:33;;;;;;;7.50;3.42;;;22.90;95.30;;;;;;4822922;29;20588;-51
2022/08/08 09:45:09;;;;;;;9.48;3.15;;;23.00;96.80;;;;;;4823656;29;20035;-51
2022/08/08 09:47:41;;;;;;;6.20;2.90;;;23.00;95.10;;;;;;4822767;29;20033;-50
2022/08/08 09:50:08;;;;;;;3.92;2.58;;;23.20;96.00;;;;;;4823894;29;20501;-51
2022/08/08 09:52:35;;;;;;;3.05;2.20;;;23.70;95.90;;;;;;4823880;29;20039;-51
2022/08/08 09:55:01;;;;;;;5.65;2.00;;;23.90;95.10;;;;;;4823745;29;20117;-54
2022/08/08 09:57:36;;;;;;;4.15;1.95;;;24.30;94.00;;;;;;4824045;29;20026;-52
2022/08/08 10:00:09;;;;;;;4.25;2.55;;;24.30;93.20;;;;;;4823587;29;20030;-52
2022/08/08 10:02:40;;;;;;;2.72;2.42;;;24.50;92.20;;;;;;4823698;29;20034;-54
2022/08/08 10:05:06;;;;;;;5.65;1.80;;;24.30;91.50;;;;;;4823272;29;20038;-51
2022/08/08 10:07:32;;;;;;;2.88;2.17;;;24.00;91.60;;;;;;4823541;29;20029;-52
2022/08/08 10:09:57;;;;;;;4.88;2.00;;;23.80;92.40;;;;;;4823493;29;20034;-51
2022/08/08 10:12:38;;;;;;;7.50;2.10;;;23.90;92.10;;;;;;4823643;29;20022;-52
2022/08/08 10:15:07;;;;;;;3.78;2.20;;;23.90;90.30;;;;;;4805243;29;20046;-50
2022/08/08 10:17:46;;;;;;;10.57;2.10;;;24.10;90.90;;;;;;4805411;29;20054;-50
2022/08/08 10:20:13;;;;;;;5.25;1.60;;;24.30;93.30;;;;;;4805278;29;20073;-51
2022/08/08 10:22:46;;;;;;;4.13;2.25;;;24.10;88.50;;;;;;4805084;29;20033;-51
2022/08/08 10:25:13;;;;;;;;;;;24.60;91.60;;;;;;4803612;29;20043;-50
2022/08/08 10:27:42;;;;;;;3.35;1.85;;;25.00;89.40;;;;;;4818892;29;19917;-50
2022/08/08 10:30:10;;;;;;;1.77;1.45;;;25.40;90.30;;;;;;4823105;29;20087;-50
2022/08/08 10:32:40;;;;;;;4.30;1.55;;;25.60;87.40;;;;;;4823247;29;20050;-52
2022/08/08 10:35:15;;;;;;;2.70;1.85;;;25.80;82.60;;;;;;4809290;29;20050;-52
2022/08/08 10:37:50;;;;;;;2.95;1.58;;;25.70;84.00;;;;;;4805051;29;20099;-51
2022/08/08 10:40:17;;;;;;;3.63;2.15;;;25.90;80.70;;;;;;4795764;29;20035;-50
2022/08/08 10:42:44;;;;;;;4.57;1.88;;;25.70;83.40;;;;;;4794527;29;20031;-51
2022/08/08 10:45:10;;;;;;;2.55;1.50;;;25.60;81.10;;;;;;4811501;29;20375;-53
2022/08/08 10:47:37;;;;;;;4.15;1.67;;;24.90;80.90;;;;;;4812056;29;20400;-51
2022/08/08 10:50:07;;;;;;;6.53;1.92;;;24.70;80.20;;;;;;4811237;29;20046;-56
2022/08/08 10:52:40;;;;;;;6.43;1.60;;;24.70;81.70;;;;;;4810351;29;20066;-53
2022/08/08 10:55:17;;;;;;;3.75;1.88;;;24.70;81.00;;;;;;4809435;29;20178;-52
2022/08/08 10:57:46;;;;;;;9.77;1.63;;;24.90;83.20;;;;;;4802269;29;20039;-52
2022/08/08 11:00:13;;;;;;;6.13;1.73;;;25.30;83.20;;;;;;4798461;29;20030;-51
2022/08/08 11:02:39;;;;;;;3.17;1.67;;;25.80;83.40;;;;;;4809037;29;20526;-53
2022/08/08 11:05:08;;;;;;;4.43;1.88;;;25.50;79.20;;;;;;4812307;29;20076;-52
2022/08/08 11:07:39;;;;;;;4.65;1.48;;;25.00;76.80;;;;;;4811299;29;20353;-51
2022/08/08 11:10:06;;;;;;;3.38;1.50;;;24.60;79.50;;;;;;4819494;29;20045;-51
2022/08/08 11:12:33;;;;;;;3.53;1.50;;;25.00;81.90;;;;;;4808790;29;20167;-50
2022/08/08 11:15:00;;;;;;;10.88;2.03;;;25.40;78.40;;;;;;4816418;29;20134;-51
2022/08/08 11:17:30;;;;;;;3.00;1.70;;;25.70;77.60;;;;;;4811850;29;20487;-54
2022/08/08 11:19:58;;;;;;;2.35;1.58;;;25.60;78.20;;;;;;4812432;29;20086;-51
2022/08/08 11:22:29;;;;;;;4.97;1.38;;;25.70;81.20;;;;;;4822030;29;20514;-52
2022/08/08 11:24:59;;;;;;;3.95;1.88;;;26.00;78.60;;;;;;4821944;29;20063;-51
2022/08/08 11:27:33;;;;;;;5.53;1.88;;;26.00;78.50;;;;;;4821825;29;20383;-50
2022/08/08 11:30:00;;;;;;;3.17;1.90;;;25.70;80.00;;;;;;4822011;29;20443;-50
2022/08/08 11:32:30;;;;;;;3.80;1.98;;;26.00;80.80;;;;;;4821907;29;20026;-50
2022/08/08 11:35:11;;;;;;;5.40;1.75;;;25.80;78.60;;;;;;4821536;29;20502;-51
2022/08/08 11:37:41;;;;;;;3.85;2.00;;;25.70;80.30;;;;;;4821952;29;20030;-50
2022/08/08 11:40:09;;;;;;;2.55;1.40;;;25.50;78.10;;;;;;4809486;29;20031;-50
2022/08/08 11:42:36;;;;;;;6.38;1.67;;;25.60;74.90;;;;;;4804409;29;20058;-51
2022/08/08 11:45:05;;;;;;;2.45;1.40;;;25.80;78.50;;;;;;4803731;29;20041;-55
2022/08/08 11:47:32;;;;;;;2.20;2.00;;;25.90;78.50;;;;;;4811503;29;20038;-53
2022/08/08 11:50:09;;;;;;;3.28;2.33;;;26.10;79.10;;;;;;4803376;29;20494;-52
2022/08/08 11:52:36;;;;;;;4.47;2.00;;;26.70;77.00;;;;;;4811164;29;20763;-51
2022/08/08 11:55:13;;;;;;;5.32;1.33;;;27.10;73.00;;;;;;4811743;29;20034;-50
2022/08/08 11:57:39;;;;;;;2.45;1.63;;;26.90;74.70;;;;;;4820192;29;20030;-50
2022/08/08 12:00:07;;;;;;;8.85;1.73;;;27.90;69.90;;;;;;4807297;29;20030;-50
2022/08/08 12:02:54;;;;;;;16.88;3.08;;;28.60;66.10;;;;;;4814564;29;20034;-53
2022/08/08 12:05:38;;;;;;;2.60;1.10;;;29.40;66.20;;;;;;4803631;29;20034;-51
2022/08/08 12:08:04;;;;;;;8.48;1.50;;;29.80;67.40;;;;;;4803428;29;20031;-53
2022/08/08 12:10:30;;;;;;;4.57;1.20;;;30.70;62.10;;;;;;4809260;29;20030;-52
2022/08/08 12:13:01;;;;;;;5.15;0.85;;;30.70;62.90;;;;;;4821499;29;20043;-52
2022/08/08 12:15:38;;;;;;;2.58;1.20;;;31.50;61.90;;;;;;4821835;29;20099;-53
2022/08/08 12:18:25;;;;;;;3.58;1.23;;;30.80;58.50;;;;;;4821567;29;20031;-52
2022/08/08 12:20:56;;;;;;;2.13;1.00;;;31.10;59.80;;;;;;4821567;29;20071;-56
2022/08/08 12:23:34;;;;;;;2.63;1.02;;;31.20;56.00;;;;;;4820134;29;20034;-50
2022/08/08 12:26:14;;;;;;;3.25;1.38;;;31.60;55.60;;;;;;4819753;29;20041;-52
2022/08/08 12:28:39;;;;;;;5.88;1.33;;;32.30;56.90;;;;;;4820047;29;20039;-53
2022/08/08 12:31:07;;;;;;;3.17;1.15;;;32.60;53.40;;;;;;4820105;29;20035;-51
2022/08/08 12:33:32;;;;;;;3.50;1.25;;;31.30;54.20;;;;;;4820313;29;20447;-51
2022/08/08 12:36:12;;;;;;;7.47;1.00;;;31.50;53.50;;;;;;4819988;29;20094;-50
2022/08/08 12:38:50;;;;;;;1.88;0.90;;;30.90;54.20;;;;;;4821548;29;20019;-52
2022/08/08 12:41:16;;;;;;;2.60;0.85;;;31.30;56.60;;;;;;4821107;29;20058;-54
2022/08/08 12:43:42;;;;;;;2.38;1.08;;;32.20;56.00;;;;;;4821513;29;20086;-51
2022/08/08 12:46:15;;;;;;;7.18;1.10;;;32.00;52.10;;;;;;4821339;29;20039;-55
2022/08/08 12:48:55;;;;;;;8.57;1.15;;;32.10;50.90;;;;;;4824682;29;20022;-53
2022/08/08 12:51:21;;;;;;;1.95;0.95;;;32.50;50.50;;;;;;4825119;29;20075;-54
2022/08/08 12:53:59;;;;;;;3.97;0.90;;;32.70;49.40;;;;;;4824744;29;20451;-52
2022/08/08 12:56:36;;;;;;;5.57;1.10;;;32.90;50.50;;;;;;4806871;29;20188;-51
2022/08/08 12:59:14;;;;;;;3.22;0.88;;;33.20;51.30;;;;;;4806746;29;20449;-54
2022/08/08 13:01:40;;;;;;;6.50;0.98;;;32.80;49.80;;;;;;4806870;29;20126;-51
2022/08/08 13:04:21;;;;;;;7.60;0.93;;;32.90;49.50;;;;;;4806387;29;20574;-51
2022/08/08 13:06:52;;;;;;;4.88;1.17;;;32.50;47.60;;;;;;4806797;29;20042;-54
2022/08/08 13:09:44;;;;;;;0.90;0.73;;;32.10;48.00;;;;;;4812731;29;20083;-54
2022/08/08 13:12:23;;;;;;;1.52;0.75;;;32.50;47.60;;;;;;4824345;29;20380;-52
2022/08/08 13:14:51;;;;;;;1.50;0.80;;;32.50;46.90;;;;;;4824395;29;20046;-54